Time;durP1;ratioP1;P1;durP2;ratioP2;P2;SDS_P1;SDS_P2;PMS_P1;PMS_P2;Temp;Humidity;BMP_temperature;BMP_pressure;BME280_temperature;BME280_humidity;BME280_pressure;Samples;Min_cycle;Max_cycle;Signal;HPM_P1;HPM_P2
2022/07/28 00:02:20;;;;;;;3.15;2.55;;;;;;;;;;10275160;28;20434;-92
2022/07/28 00:07:22;;;;;;;2.80;2.50;;;;;;;;;;10276402;28;20473;-92
2022/07/28 00:12:26;;;;;;;3.43;2.60;;;;;;;;;;10275770;28;20415;-93
2022/07/28 00:17:28;;;;;;;2.42;2.22;;;;;;;;;;10261004;28;20418;-92
2022/07/28 00:22:30;;;;;;;2.55;2.35;;;;;;;;;;10278587;28;20954;-93
2022/07/28 00:27:33;;;;;;;2.30;2.00;;;;;;;;;;10263975;28;20406;-92
2022/07/28 00:32:36;;;;;;;3.17;2.40;;;;;;;;;;10285108;28;20803;-92
2022/07/28 00:37:38;;;;;;;2.85;2.45;;;;;;;;;;10286239;28;20434;-92
2022/07/28 00:42:41;;;;;;;2.50;2.20;;;;;;;;;;10285413;28;20417;-92
2022/07/28 00:47:43;;;;;;;2.50;2.30;;;;;;;;;;10291355;28;20417;-92
2022/07/28 00:52:46;;;;;;;3.10;2.25;;;;;;;;;;10279857;28;20414;-91
2022/07/28 00:57:50;;;;;;;2.50;2.10;;;;;;;;;;10272898;28;20769;-92
2022/07/28 01:02:52;;;;;;;3.80;2.50;;;;;;;;;;10283701;28;20491;-92
2022/07/28 01:08:01;;;;;;;2.65;2.42;;;;;;;;;;10275691;28;20446;-92
2022/07/28 01:13:13;;;;;;;4.72;2.72;;;;;;;;;;10273068;28;20415;-92
2022/07/28 01:18:18;;;;;;;2.85;2.60;;;;;;;;;;10274657;28;20501;-92
2022/07/28 01:23:40;;;;;;;2.93;2.60;;;;;;;;;;10272342;28;20510;-92
2022/07/28 01:28:58;;;;;;;2.85;2.65;;;;;;;;;;10290824;23;20462;-85
2022/07/28 01:34:08;;;;;;;3.28;2.58;;;;;;;;;;10274262;28;20414;-84
2022/07/28 01:39:11;;;;;;;2.72;2.35;;;;;;;;;;10275213;28;21259;-83
2022/07/28 01:44:18;;;;;;;2.53;2.28;;;;;;;;;;10277889;28;20499;-84
2022/07/28 01:49:23;;;;;;;3.83;2.40;;;;;;;;;;10274676;28;20443;-84
2022/07/28 01:54:27;;;;;;;2.78;2.20;;;;;;;;;;10273879;28;20968;-84
2022/07/28 01:59:30;;;;;;;2.30;2.10;;;;;;;;;;10273726;28;20430;-85
2022/07/28 02:04:37;;;;;;;2.38;2.08;;;;;;;;;;10272172;28;20415;-84
2022/07/28 02:09:40;;;;;;;3.75;2.22;;;;;;;;;;10271992;28;20411;-84
2022/07/28 02:14:43;;;;;;;2.63;2.40;;;;;;;;;;10274360;28;20419;-85
2022/07/28 02:19:48;;;;;;;2.85;2.08;;;;;;;;;;10273837;28;20842;-84
2022/07/28 02:24:50;;;;;;;3.25;2.22;;;;;;;;;;10274386;28;20422;-84
2022/07/28 02:29:56;;;;;;;2.90;2.03;;;;;;;;;;10274342;28;20414;-84
2022/07/28 02:35:05;;;;;;;3.07;2.10;;;;;;;;;;10274218;28;20752;-85
2022/07/28 02:40:13;;;;;;;2.38;2.17;;;;;;;;;;10274255;28;20904;-84
2022/07/28 02:45:17;;;;;;;2.53;2.20;;;;;;;;;;10274021;28;20408;-84
2022/07/28 02:50:24;;;;;;;2.50;2.10;;;;;;;;;;10266838;28;20432;-83
2022/07/28 02:55:26;;;;;;;2.57;2.23;;;;;;;;;;10273463;28;20414;-83
2022/07/28 03:00:29;;;;;;;2.20;2.00;;;;;;;;;;10273562;28;20430;-85
2022/07/28 03:05:33;;;;;;;2.30;2.10;;;;;;;;;;10274386;28;20402;-83
2022/07/28 03:10:35;;;;;;;2.30;2.10;;;;;;;;;;10273590;28;20413;-84
2022/07/28 03:15:38;;;;;;;2.20;2.00;;;;;;;;;;10273996;28;20916;-84
2022/07/28 03:20:42;;;;;;;4.10;2.45;;;;;;;;;;10273893;28;20506;-84
2022/07/28 03:25:48;;;;;;;2.40;2.20;;;;;;;;;;10272777;28;20414;-83
2022/07/28 03:30:58;;;;;;;2.53;2.33;;;;;;;;;;10269654;28;20913;-83
2022/07/28 03:36:06;;;;;;;2.70;2.20;;;;;;;;;;10272939;28;21078;-84
2022/07/28 03:41:10;;;;;;;3.00;2.30;;;;;;;;;;10268714;28;20434;-85
2022/07/28 03:46:12;;;;;;;2.60;2.40;;;;;;;;;;10271114;28;20485;-84
2022/07/28 03:51:16;;;;;;;2.53;2.30;;;;;;;;;;10272400;28;20408;-84
2022/07/28 03:56:18;;;;;;;2.88;2.55;;;;;;;;;;10269469;28;20421;-85
2022/07/28 04:01:20;;;;;;;3.90;2.55;;;;;;;;;;10272752;28;20426;-83
2022/07/28 04:06:23;;;;;;;2.78;2.00;;;;;;;;;;10277616;28;20398;-84
2022/07/28 04:11:25;;;;;;;2.92;2.55;;;;;;;;;;10277923;28;20418;-84
2022/07/28 04:16:26;;;;;;;3.63;2.70;;;;;;;;;;10280408;28;20866;-84
2022/07/28 04:21:30;;;;;;;3.00;2.50;;;;;;;;;;10280938;28;20862;-84
2022/07/28 04:26:31;;;;;;;4.50;2.90;;;;;;;;;;10280807;28;20501;-84
2022/07/28 04:31:33;;;;;;;3.00;2.60;;;;;;;;;;10279602;28;20432;-84
2022/07/28 04:36:40;;;;;;;3.58;2.78;;;;;;;;;;10279034;28;20431;-84
2022/07/28 04:41:42;;;;;;;4.30;2.80;;;;;;;;;;10279039;28;20418;-84
2022/07/28 04:46:44;;;;;;;3.93;2.90;;;;;;;;;;10279184;28;20407;-84
2022/07/28 04:51:49;;;;;;;3.70;3.00;;;;;;;;;;10279237;28;20410;-84
2022/07/28 04:56:51;;;;;;;4.20;3.13;;;;;;;;;;10276162;28;20428;-84
2022/07/28 05:01:55;;;;;;;4.97;3.30;;;;;;;;;;10274330;28;20775;-84
2022/07/28 05:06:58;;;;;;;5.00;3.60;;;;;;;;;;10274680;28;20907;-84
2022/07/28 05:12:00;;;;;;;4.60;3.60;;;;;;;;;;10276444;28;20414;-83
2022/07/28 05:17:02;;;;;;;5.88;3.40;;;;;;;;;;10272186;28;20402;-83
2022/07/28 05:22:06;;;;;;;5.45;3.38;;;;;;;;;;10274782;28;20509;-83
2022/07/28 05:27:07;;;;;;;6.47;3.40;;;;;;;;;;10273275;28;20514;-82
2022/07/28 05:32:10;;;;;;;3.77;3.23;;;;;;;;;;10274571;28;20493;-82
2022/07/28 05:37:14;;;;;;;3.73;3.10;;;;;;;;;;10276317;28;20419;-82
2022/07/28 05:42:15;;;;;;;4.03;3.20;;;;;;;;;;10272630;28;20413;-83
2022/07/28 05:47:17;;;;;;;3.63;3.20;;;;;;;;;;10269080;28;20422;-83
2022/07/28 05:52:20;;;;;;;3.97;3.28;;;;;;;;;;10277155;28;20489;-83
2022/07/28 05:57:23;;;;;;;5.18;3.20;;;;;;;;;;10264443;28;20796;-83
2022/07/28 06:02:25;;;;;;;3.80;3.30;;;;;;;;;;10272623;28;20566;-83
2022/07/28 06:07:28;;;;;;;4.35;3.30;;;;;;;;;;10268899;28;20428;-83
2022/07/28 06:12:30;;;;;;;4.13;2.83;;;;;;;;;;10274876;28;20505;-82
2022/07/28 06:17:32;;;;;;;4.88;3.40;;;;;;;;;;10276034;28;20430;-82
2022/07/28 06:22:43;;;;;;;3.57;3.20;;;;;;;;;;10275592;28;20417;-82
2022/07/28 06:27:47;;;;;;;5.95;3.10;;;;;;;;;;10272144;28;20416;-82
2022/07/28 06:32:49;;;;;;;4.30;3.30;;;;;;;;;;10272613;28;20425;-82
2022/07/28 06:37:53;;;;;;;3.80;3.50;;;;;;;;;;10270576;28;20426;-82
2022/07/28 06:42:55;;;;;;;4.83;3.63;;;;;;;;;;10273238;28;20411;-81
2022/07/28 06:47:56;;;;;;;5.40;3.47;;;;;;;;;;10269993;28;20418;-83
2022/07/28 06:53:00;;;;;;;6.10;3.60;;;;;;;;;;10275822;28;20421;-82
2022/07/28 06:58:01;;;;;;;4.80;3.45;;;;;;;;;;10275783;28;20505;-83
2022/07/28 07:03:03;;;;;;;4.22;3.55;;;;;;;;;;10275652;28;20497;-83
2022/07/28 07:08:07;;;;;;;5.37;3.57;;;;;;;;;;10272638;28;20421;-77
2022/07/28 07:13:09;;;;;;;5.97;3.63;;;;;;;;;;10272845;28;20797;-77
2022/07/28 07:18:10;;;;;;;6.43;3.73;;;;;;;;;;10275105;28;20658;-77
2022/07/28 07:23:14;;;;;;;7.00;3.70;;;;;;;;;;10274810;28;20497;-77
2022/07/28 07:28:15;;;;;;;5.43;3.80;;;;;;;;;;10274464;28;20432;-77
2022/07/28 07:33:17;;;;;;;5.57;3.53;;;;;;;;;;10271590;28;20485;-77
2022/07/28 07:38:20;;;;;;;5.10;3.65;;;;;;;;;;10271530;28;20511;-81
2022/07/28 07:43:22;;;;;;;5.40;3.60;;;;;;;;;;10274557;28;20406;-83
2022/07/28 07:48:24;;;;;;;3.87;3.47;;;;;;;;;;10274720;28;20417;-83
2022/07/28 07:53:27;;;;;;;7.28;4.20;;;;;;;;;;10273943;28;20410;-83
2022/07/28 07:58:29;;;;;;;6.70;3.85;;;;;;;;;;10268608;28;20556;-83
2022/07/28 08:03:31;;;;;;;5.90;5.30;;;;;;;;;;10267824;28;20398;-81
2022/07/28 08:08:34;;;;;;;6.70;4.80;;;;;;;;;;10268276;28;20485;-83
2022/07/28 08:13:36;;;;;;;7.80;4.90;;;;;;;;;;10256594;28;20519;-83
2022/07/28 08:18:37;;;;;;;5.72;4.10;;;;;;;;;;10248355;28;20434;-80
2022/07/28 08:23:41;;;;;;;6.45;4.25;;;;;;;;;;10265502;28;20433;-82
2022/07/28 08:28:44;;;;;;;4.75;4.18;;;;;;;;;;10277011;28;20422;-82
2022/07/28 08:33:46;;;;;;;6.20;4.70;;;;;;;;;;10277442;28;20882;-82
2022/07/28 08:38:49;;;;;;;5.13;4.10;;;;;;;;;;10271293;28;20526;-82
2022/07/28 08:43:53;;;;;;;5.37;4.50;;;;;;;;;;10272820;28;20591;-80
2022/07/28 08:48:55;;;;;;;4.30;3.72;;;;;;;;;;10267733;28;20421;-81
2022/07/28 08:53:59;;;;;;;7.15;4.90;;;;;;;;;;10280249;28;20497;-82
2022/07/28 08:59:03;;;;;;;4.10;3.70;;;;;;;;;;10276488;28;20514;-81
2022/07/28 09:04:07;;;;;;;5.70;4.03;;;;;;;;;;10277391;28;20508;-81
2022/07/28 09:09:10;;;;;;;6.43;4.18;;;;;;;;;;10277030;28;20521;-82
2022/07/28 09:14:12;;;;;;;5.60;4.20;;;;;;;;;;10276439;28;20410;-82
2022/07/28 09:19:14;;;;;;;4.35;3.95;;;;;;;;;;10277126;28;20852;-82
2022/07/28 09:24:36;;;;;;;5.60;3.93;;;;;;;;;;10273480;28;20410;-83
2022/07/28 09:29:40;;;;;;;4.20;3.80;;;;;;;;;;10276325;28;20421;-83
2022/07/28 09:34:43;;;;;;;5.45;3.90;;;;;;;;;;10279792;28;20449;-83
2022/07/28 09:39:48;;;;;;;4.00;3.70;;;;;;;;;;10279385;28;20821;-82
2022/07/28 09:45:06;;;;;;;4.72;4.22;;;;;;;;;;10275570;28;20398;-81
2022/07/28 09:50:08;;;;;;;4.35;3.95;;;;;;;;;;10277032;28;20438;-82
2022/07/28 09:55:12;;;;;;;4.72;4.30;;;;;;;;;;10277657;28;20497;-82
2022/07/28 10:00:27;;;;;;;5.25;4.40;;;;;;;;;;10263686;28;20426;-83
2022/07/28 10:05:40;;;;;;;4.93;4.53;;;;;;;;;;10275318;28;20493;-83
2022/07/28 10:10:58;;;;;;;5.53;5.00;;;;;;;;;;10273846;28;20414;-82
2022/07/28 10:16:10;;;;;;;6.50;4.90;;;;;;;;;;10268132;28;20513;-81
2022/07/28 10:21:13;;;;;;;5.90;4.90;;;;;;;;;;10274692;28;20526;-81
2022/07/28 10:26:19;;;;;;;5.03;4.53;;;;;;;;;;10272632;28;20493;-82
2022/07/28 10:31:35;;;;;;;6.67;4.43;;;;;;;;;;10271906;28;20414;-82
2022/07/28 10:36:37;;;;;;;4.83;4.33;;;;;;;;;;10271848;28;20452;-82
2022/07/28 10:41:42;;;;;;;6.85;4.30;;;;;;;;;;10270019;28;20518;-81
2022/07/28 10:46:45;;;;;;;5.78;4.05;;;;;;;;;;10273713;28;20410;-82
2022/07/28 10:51:48;;;;;;;4.65;4.10;;;;;;;;;;10264859;28;21078;-82
2022/07/28 10:56:54;;;;;;;5.10;4.60;;;;;;;;;;10269712;28;20416;-82
2022/07/28 11:01:56;;;;;;;5.53;4.15;;;;;;;;;;10273479;28;20497;-82
2022/07/28 11:07:10;;;;;;;4.95;4.47;;;;;;;;;;10275603;28;20407;-81
2022/07/28 11:12:14;;;;;;;6.63;4.20;;;;;;;;;;10271687;28;20413;-83
2022/07/28 11:17:20;;;;;;;5.40;4.90;;;;;;;;;;10274196;28;20489;-82
2022/07/28 11:22:27;;;;;;;5.80;5.30;;;;;;;;;;10270783;28;20430;-81
2022/07/28 11:28:00;;;;;;;6.47;5.53;;;;;;;;;;10265695;28;20430;-82
2022/07/28 11:33:03;;;;;;;6.13;5.43;;;;;;;;;;10270063;28;20499;-81
2022/07/28 11:38:13;;;;;;;6.72;5.65;;;;;;;;;;10273635;28;20415;-82
2022/07/28 11:43:33;;;;;;;5.78;5.18;;;;;;;;;;10264771;28;20408;-81
2022/07/28 11:48:36;;;;;;;5.32;4.82;;;;;;;;;;10269973;28;20404;-81
2022/07/28 11:53:40;;;;;;;6.88;5.45;;;;;;;;;;10271535;28;20424;-81
2022/07/28 11:58:43;;;;;;;6.50;5.87;;;;;;;;;;10266534;28;20518;-82
2022/07/28 12:03:47;;;;;;;7.67;5.90;;;;;;;;;;10271745;28;21033;-82
2022/07/28 12:08:52;;;;;;;5.72;5.22;;;;;;;;;;10260972;28;20886;-82
2022/07/28 12:14:00;;;;;;;6.15;5.35;;;;;;;;;;10273415;28;20771;-81
2022/07/28 12:19:02;;;;;;;5.75;5.15;;;;;;;;;;10269961;28;20801;-82
2022/07/28 12:24:05;;;;;;;6.25;5.55;;;;;;;;;;10271165;28;20422;-82
2022/07/28 12:29:11;;;;;;;7.20;5.70;;;;;;;;;;10276166;28;20414;-81
2022/07/28 12:34:14;;;;;;;6.33;5.63;;;;;;;;;;10281322;28;20406;-81
2022/07/28 12:39:17;;;;;;;6.03;5.20;;;;;;;;;;10278822;28;20426;-83
2022/07/28 12:44:20;;;;;;;5.47;4.93;;;;;;;;;;10273495;28;20716;-83
2022/07/28 12:49:22;;;;;;;5.18;4.63;;;;;;;;;;10274684;28;20469;-83
2022/07/28 12:54:35;;;;;;;6.72;5.25;;;;;;;;;;10271097;28;20493;-79
2022/07/28 12:59:39;;;;;;;7.22;5.25;;;;;;;;;;10277631;28;20438;-84
2022/07/28 13:04:44;;;;;;;5.35;4.85;;;;;;;;;;10275122;28;20501;-83
2022/07/28 13:09:49;;;;;;;5.22;4.55;;;;;;;;;;10270744;28;20775;-83
2022/07/28 13:14:54;;;;;;;5.00;4.17;;;;;;;;;;10274956;28;20490;-84
2022/07/28 13:20:04;;;;;;;5.05;4.25;;;;;;;;;;10270560;28;20517;-83
2022/07/28 13:25:07;;;;;;;4.88;4.25;;;;;;;;;;10276119;28;20764;-84
2022/07/28 14:21:51;;;;;;;4.00;3.60;;;;;;;;;;11206538;23;20427;-89
2022/07/28 14:26:53;;;;;;;5.47;3.80;;;;;;;;;;10278173;28;20504;-93
2022/07/28 14:31:57;;;;;;;3.90;3.53;;;;;;;;;;10286540;28;20418;-93
2022/07/28 14:37:01;;;;;;;4.72;3.75;;;;;;;;;;10273116;28;20529;-93
2022/07/28 14:42:03;;;;;;;4.00;3.60;;;;;;;;;;10285141;28;20529;-92
2022/07/28 14:47:06;;;;;;;4.10;3.50;;;;;;;;;;10270810;28;20417;-94
2022/07/28 14:52:11;;;;;;;4.05;3.70;;;;;;;;;;10277150;28;20498;-92
2022/07/28 14:57:13;;;;;;;4.57;3.83;;;;;;;;;;10282141;28;20446;-95
2022/07/28 15:02:15;;;;;;;4.45;3.60;;;;;;;;;;10273886;28;20455;-94
2022/07/28 15:07:19;;;;;;;5.00;3.60;;;;;;;;;;10291414;28;20906;-94
2022/07/28 15:12:21;;;;;;;3.80;3.50;;;;;;;;;;10284873;28;20422;-93
2022/07/28 15:17:23;;;;;;;6.27;4.10;;;;;;;;;;10297468;28;20470;-94
2022/07/28 15:22:28;;;;;;;4.53;3.60;;;;;;;;;;10298786;28;20783;-93
2022/07/28 15:27:30;;;;;;;4.20;3.65;;;;;;;;;;10277199;28;20455;-94
2022/07/28 15:32:32;;;;;;;4.00;3.60;;;;;;;;;;10275752;28;20465;-94
2022/07/28 15:37:38;;;;;;;4.20;3.63;;;;;;;;;;10280013;28;20424;-93
2022/07/28 15:42:40;;;;;;;4.35;3.80;;;;;;;;;;10286422;28;20430;-94
2022/07/28 15:47:42;;;;;;;4.70;3.70;;;;;;;;;;10283450;28;20804;-93
2022/07/28 15:52:45;;;;;;;3.75;3.40;;;;;;;;;;10282629;28;20534;-93
2022/07/28 15:57:49;;;;;;;4.50;3.80;;;;;;;;;;10280786;28;20488;-94
2022/07/28 16:02:52;;;;;;;5.30;4.00;;;;;;;;;;10300783;28;20488;-93
2022/07/28 16:07:56;;;;;;;4.53;3.63;;;;;;;;;;10311597;28;20495;-94
2022/07/28 16:12:58;;;;;;;4.13;3.67;;;;;;;;;;10301384;28;21226;-92
2022/07/28 16:18:00;;;;;;;3.90;3.60;;;;;;;;;;10296619;28;20441;-93
2022/07/28 16:23:03;;;;;;;6.15;4.85;;;;;;;;;;10294399;28;20513;-94
2022/07/28 16:28:05;;;;;;;5.23;4.00;;;;;;;;;;10294638;28;20453;-92
2022/07/28 16:33:07;;;;;;;4.75;3.78;;;;;;;;;;10326089;28;20414;-94
2022/07/28 16:38:11;;;;;;;3.90;3.60;;;;;;;;;;10307697;28;20412;-94
2022/07/28 16:43:13;;;;;;;4.15;3.40;;;;;;;;;;10277359;28;20433;-95
2022/07/28 16:48:15;;;;;;;3.97;3.67;;;;;;;;;;10296259;28;20497;-93
2022/07/28 16:53:19;;;;;;;5.32;3.90;;;;;;;;;;10295791;28;20456;-94
2022/07/28 16:58:21;;;;;;;4.20;3.80;;;;;;;;;;10288637;28;20501;-93
2022/07/28 17:03:24;;;;;;;4.03;3.60;;;;;;;;;;10301869;28;20438;-95
2022/07/28 17:08:31;;;;;;;4.50;3.70;;;;;;;;;;10300415;28;20445;-96
2022/07/28 17:13:35;;;;;;;6.47;3.80;;;;;;;;;;10296004;28;20408;-96
2022/07/28 17:18:39;;;;;;;4.05;3.65;;;;;;;;;;10304452;28;20429;-96
2022/07/28 17:50:53;;;;;;;5.65;3.55;;;;;;;;;;10965387;23;20428;-94
2022/07/28 17:55:55;;;;;;;4.23;3.70;;;;;;;;;;10274662;28;20514;-94
2022/07/28 18:01:01;;;;;;;3.75;3.28;;;;;;;;;;10271009;28;20467;-94
2022/07/28 18:06:05;;;;;;;4.70;3.47;;;;;;;;;;10264416;28;20424;-93
2022/07/28 18:11:07;;;;;;;5.15;3.42;;;;;;;;;;10271287;28;20427;-92
2022/07/28 18:16:09;;;;;;;3.50;3.20;;;;;;;;;;10251421;28;20420;-94
2022/07/28 18:21:14;;;;;;;5.20;3.15;;;;;;;;;;10266735;28;20489;-93
2022/07/28 18:26:16;;;;;;;6.40;3.45;;;;;;;;;;10265643;28;20503;-92
2022/07/28 18:31:18;;;;;;;4.40;3.50;;;;;;;;;;10273030;28;20452;-91
2022/07/28 18:46:42;;;;;;;5.20;3.67;;;;;;;;;;11545649;23;20415;-94
2022/07/28 18:51:44;;;;;;;9.15;7.28;;;;;;;;;;10306609;28;20477;-91
2022/07/28 18:56:46;;;;;;;7.17;6.47;;;;;;;;;;10287453;28;20414;-78
2022/07/28 19:01:51;;;;;;;13.30;8.68;;;;;;;;;;10278074;28;20423;-79
2022/07/28 19:06:54;;;;;;;25.45;13.65;;;;;;;;;;10271398;28;20450;-92
2022/07/28 19:11:56;;;;;;;4.38;3.80;;;;;;;;;;10289019;28;20415;-92
2022/07/28 19:38:01;;;;;;;16.95;13.55;;;;;;;;;;10441410;23;20465;-89
2022/07/28 19:43:03;;;;;;;14.27;9.98;;;;;;;;;;10289278;28;20475;-91
2022/07/28 19:48:06;;;;;;;23.67;17.67;;;;;;;;;;10283718;28;20437;-78
2022/07/28 19:53:09;;;;;;;10.52;7.72;;;;;;;;;;10269302;28;20423;-84
2022/07/28 19:58:12;;;;;;;4.80;4.30;;;;;;;;;;10301255;28;20490;-90
2022/07/28 20:03:14;;;;;;;9.05;4.88;;;;;;;;;;10278811;28;20435;-76
2022/07/28 20:08:26;;;;;;;4.30;3.57;;;;;;;;;;10283567;28;20485;-94
2022/07/28 20:13:28;;;;;;;6.50;4.88;;;;;;;;;;10229664;28;20904;-92
2022/07/28 20:18:30;;;;;;;4.53;3.60;;;;;;;;;;10243056;28;20542;-91
2022/07/28 20:23:33;;;;;;;34.13;28.75;;;;;;;;;;10234777;28;20640;-91
2022/07/28 20:28:35;;;;;;;28.27;25.08;;;;;;;;;;10242737;28;20418;-91
2022/07/28 20:33:37;;;;;;;7.68;6.47;;;;;;;;;;10238416;28;20475;-91
2022/07/28 20:38:41;;;;;;;14.30;12.80;;;;;;;;;;10235954;28;21004;-90
2022/07/28 20:44:02;;;;;;;11.77;9.77;;;;;;;;;;10257182;28;20860;-96
2022/07/28 20:54:35;;;;;;;11.10;8.15;;;;;;;;;;10259702;28;20428;-89
2022/07/28 20:59:37;;;;;;;8.90;6.00;;;;;;;;;;10253915;28;20754;-91
2022/07/28 21:15:22;;;;;;;7.38;6.07;;;;;;;;;;10660324;23;20462;-88
2022/07/28 21:20:28;;;;;;;21.92;13.52;;;;;;;;;;10165719;29;21181;-90
2022/07/28 21:25:31;;;;;;;18.47;12.90;;;;;;;;;;10438070;23;20449;-91
2022/07/28 21:30:34;;;;;;;13.32;9.77;;;;;;;;;;10206641;29;20421;-79
2022/07/28 21:35:36;;;;;;;8.20;5.68;;;;;;;;;;10228471;29;20416;-91
2022/07/28 21:40:40;;;;;;;7.53;5.70;;;;;;;;;;10200487;29;20878;-92
2022/07/28 21:45:45;;;;;;;6.10;5.00;;;;;;;;;;10209511;29;20414;-92
2022/07/28 21:50:47;;;;;;;6.97;5.05;;;;;;;;;;10199319;29;20491;-92
2022/07/28 21:55:51;;;;;;;6.00;4.75;;;;;;;;;;10204113;29;20437;-92
2022/07/28 22:00:55;;;;;;;6.40;5.03;;;;;;;;;;10212882;29;20430;-92
2022/07/28 22:05:57;;;;;;;5.35;4.85;;;;;;;;;;10218686;29;20503;-94
2022/07/28 22:10:59;;;;;;;6.97;5.65;;;;;;;;;;10215332;29;20445;-92
2022/07/28 22:16:02;;;;;;;10.82;6.25;;;;;;;;;;10208427;29;20505;-92
2022/07/28 22:21:04;;;;;;;6.63;5.82;;;;;;;;;;10208568;29;20417;-91
2022/07/28 22:26:06;;;;;;;8.63;5.45;;;;;;;;;;10212571;29;20457;-91
2022/07/28 22:31:09;;;;;;;9.38;5.55;;;;;;;;;;10220570;29;20422;-91
2022/07/28 22:36:11;;;;;;;8.02;5.75;;;;;;;;;;10214465;29;20424;-90
2022/07/28 22:41:13;;;;;;;9.75;6.28;;;;;;;;;;10202450;29;20850;-91
